Terminal Aerodrome Forecast
Issued by NWS

Home | Current Version | Previous Version | Text Only | Print | Product List | Glossary On
Versions: 1 2 3 4 5 6 7 8 9 10 11 12 13 14 15 16
000
FTUS45 KTFX 290523
TAFGTF
TAF
KGTF 290523Z 2906/3006 36010KT 5SM -RA BR OVC005
      TEMPO 2906/2908 6SM BR SCT006 OVC014
     FM290800 VRB05KT 5SM BR SCT010 OVC020
      TEMPO 2910/2914 2SM BR BKN010
     FM291500 12007KT P6SM SCT020 BKN035
     FM291800 11011KT P6SM SCT040
     FM292300 09010KT P6SM VCSH SCT030 BKN060=

USA.gov is the U.S. government's official web portal to all federal, state and local government web resources and services.